Time;durP1;ratioP1;P1;durP2;ratioP2;P2;SDS_P1;SDS_P2;PMS_P1;PMS_P2;Temp;Humidity;BMP_temperature;BMP_pressure;BME280_temperature;BME280_humidity;BME280_pressure;Samples;Min_cycle;Max_cycle;Signal;HPM_P1;HPM_P2
2021/11/04 00:01:14;;;;;;;30.95;19.17;;;;;;;8.32;87.12;99879.73;1630511;86;25881;-84
2021/11/04 00:03:41;;;;;;;30.10;19.25;;;;;;;8.31;87.09;99875.92;1665740;84;26478;-84
2021/11/04 00:06:09;;;;;;;28.25;18.25;;;;;;;8.27;87.21;99888.00;1568080;87;26142;-84
2021/11/04 00:08:36;;;;;;;26.62;18.05;;;;;;;8.26;87.23;99879.66;1617093;86;25861;-83
2021/11/04 00:11:03;;;;;;;31.42;19.32;;;;;;;8.27;87.25;99872.82;1613423;87;27663;-83
2021/11/04 00:13:31;;;;;;;28.05;17.98;;;;;;;8.26;87.25;99872.48;1662163;86;25834;-83
2021/11/04 00:15:58;;;;;;;30.45;18.57;;;;;;;8.27;87.31;99869.31;1584344;87;25879;-84
2021/11/04 00:18:26;;;;;;;31.52;18.65;;;;;;;8.26;87.38;99886.33;1615214;86;25888;-83
2021/11/04 00:20:53;;;;;;;28.90;19.48;;;;;;;8.25;87.51;99889.53;1637760;85;25651;-84
2021/11/04 00:23:20;;;;;;;33.40;19.25;;;;;;;8.26;87.57;99887.16;1662856;86;27161;-84
2021/11/04 00:25:47;;;;;;;27.52;18.65;;;;;;;8.26;87.52;99895.16;1593973;86;25838;-84
2021/11/04 00:28:15;;;;;;;31.00;18.90;;;;;;;8.28;87.64;99886.46;1638213;86;25907;-83
2021/11/04 00:30:42;;;;;;;31.07;19.70;;;;;;;8.28;87.69;99891.80;1633441;86;25558;-84
2021/11/04 00:33:09;;;;;;;32.25;18.95;;;;;;;8.29;87.76;99905.97;1653990;86;26054;-83
2021/11/04 00:35:36;;;;;;;31.50;17.25;;;;;;;8.27;87.86;99908.84;1592372;86;27474;-84
2021/11/04 00:38:03;;;;;;;29.80;17.75;;;;;;;8.28;88.00;99926.98;1632411;86;25843;-83
2021/11/04 00:40:32;;;;;;;28.55;18.65;;;;;;;8.28;88.06;99930.98;1569751;87;25413;-84
2021/11/04 00:42:59;;;;;;;28.35;17.98;;;;;;;8.27;88.07;99925.34;1662533;86;26435;-84
2021/11/04 00:45:26;;;;;;;26.93;17.67;;;;;;;8.28;88.12;99925.15;1571272;87;26062;-83
2021/11/04 00:47:53;;;;;;;29.30;18.55;;;;;;;8.29;88.34;99900.14;1574737;89;27582;-84
2021/11/04 00:50:24;;;;;;;29.07;18.77;;;;;;;8.29;88.37;99906.80;1633948;86;26006;-84
2021/11/04 00:52:51;;;;;;;28.40;18.00;;;;;;;8.31;88.39;99931.95;1662118;86;25816;-83
2021/11/04 00:55:18;;;;;;;27.73;18.48;;;;;;;8.32;88.46;99946.94;1594755;86;25811;-82
2021/11/04 00:57:46;;;;;;;28.42;18.55;;;;;;;8.32;88.42;99954.44;1616200;86;26487;-82
2021/11/04 01:00:14;;;;;;;31.82;17.95;;;;;;;8.35;88.50;99954.58;1633018;86;27577;-84
2021/11/04 01:02:42;;;;;;;30.77;19.30;;;;;;;8.35;88.58;99935.90;1632331;87;25374;-83
2021/11/04 01:05:10;;;;;;;29.10;17.50;;;;;;;8.36;88.64;99941.57;1592457;84;26473;-84
2021/11/04 01:07:37;;;;;;;26.77;17.80;;;;;;;8.38;88.73;99938.20;1646285;84;26221;-83
2021/11/04 01:10:06;;;;;;;32.60;19.60;;;;;;;8.40;88.75;99946.84;1667697;84;26695;-84
2021/11/04 01:12:33;;;;;;;28.17;19.12;;;;;;;8.42;88.83;99942.14;1665987;86;27553;-85
2021/11/04 01:15:00;;;;;;;26.77;18.20;;;;;;;8.42;88.79;99943.48;1594501;86;25825;-82
2021/11/04 01:17:28;;;;;;;32.10;20.10;;;;;;;8.43;88.83;99944.61;1634137;84;25348;-84
2021/11/04 01:19:55;;;;;;;27.77;18.40;;;;;;;8.45;88.86;99943.08;1629297;86;26667;-83
2021/11/04 01:22:22;;;;;;;23.90;16.35;;;;;;;8.46;88.85;99938.08;1627421;86;26668;-83
2021/11/04 01:24:49;;;;;;;29.27;17.32;;;;;;;8.45;88.85;99926.57;1659904;86;27577;-83
2021/11/04 01:27:16;;;;;;;31.87;18.20;;;;;;;8.46;88.84;99930.91;1626759;84;25580;-83
2021/11/04 01:29:43;;;;;;;27.13;18.05;;;;;;;8.47;88.79;99939.72;1664913;84;25882;-84
2021/11/04 01:32:10;;;;;;;28.75;18.23;;;;;;;8.46;88.81;99944.25;1689948;84;26327;-84
2021/11/04 01:34:37;;;;;;;25.02;17.35;;;;;;;8.45;88.82;99935.91;1623266;84;25324;-84
2021/11/04 01:37:04;;;;;;;29.50;18.35;;;;;;;8.47;88.90;99943.22;1642781;84;27545;-84
2021/11/04 01:39:31;;;;;;;31.20;18.50;;;;;;;8.47;88.92;99940.55;1653886;84;25879;-84
2021/11/04 01:41:58;;;;;;;28.23;18.73;;;;;;;8.48;88.91;99944.89;1689400;84;25870;-84
2021/11/04 01:44:28;;;;;;;30.88;19.02;;;;;;;8.48;88.94;99936.88;1624323;84;25960;-83
2021/11/04 01:46:55;;;;;;;30.85;20.02;;;;;;;8.47;88.91;99938.38;1658471;84;26171;-83
2021/11/04 01:49:22;;;;;;;29.55;18.87;;;;;;;8.48;88.94;99933.37;1666806;84;27599;-84
2021/11/04 01:51:50;;;;;;;27.62;17.82;;;;;;;8.48;88.92;99929.38;1666124;84;25965;-83
2021/11/04 01:54:17;;;;;;;26.48;17.12;;;;;;;8.48;88.87;99928.03;1642855;84;25853;-84
2021/11/04 01:56:44;;;;;;;25.10;17.00;;;;;;;8.45;88.84;99929.73;1639129;84;25819;-84
2021/11/04 01:59:12;;;;;;;25.97;16.30;;;;;;;8.45;88.95;99926.57;1662538;84;25930;-84
2021/11/04 02:01:39;;;;;;;27.22;16.42;;;;;;;8.44;89.00;99922.77;1689371;84;27624;-83
2021/11/04 02:04:20;;;;;;;28.05;17.30;;;;;;;8.43;89.02;99923.77;1621952;84;25978;-83
2021/11/04 02:06:52;;;;;;;25.75;16.77;;;;;;;8.43;88.99;99925.09;1690998;84;26558;-85
2021/11/04 02:09:40;;;;;;;24.10;17.25;;;;;;;8.42;89.04;99931.47;1652938;84;26221;-84
2021/11/04 02:12:34;;;;;;;25.75;17.62;;;;;;;8.41;89.07;99929.30;1695744;84;26311;-84
2021/11/04 02:15:03;;;;;;;26.00;16.85;;;;;;;8.40;89.16;99922.83;1661035;85;27499;-84
2021/11/04 02:17:32;;;;;;;29.23;17.80;;;;;;;8.39;89.15;99912.66;1685787;84;25648;-84
2021/11/04 02:20:00;;;;;;;26.37;17.52;;;;;;;8.36;89.12;99906.88;1629312;85;25850;-83
2021/11/04 02:22:39;;;;;;;26.87;18.37;;;;;;;8.34;89.21;99910.25;1693900;84;25945;-84
2021/11/04 02:25:27;;;;;;;26.10;17.57;;;;;;;8.36;89.30;99906.88;1631861;84;26036;-84
2021/11/04 02:28:01;;;;;;;26.87;17.77;;;;;;;8.36;89.29;99905.55;1652801;86;28158;-84
2021/11/04 02:30:30;;;;;;;26.27;18.50;;;;;;;8.36;89.31;99895.67;1651683;85;25865;-82
2021/11/04 02:32:58;;;;;;;26.73;17.02;;;;;;;8.33;89.29;99879.23;1650344;85;25861;-85
2021/11/04 02:35:25;;;;;;;25.62;17.17;;;;;;;8.33;89.33;99873.89;1676470;84;25790;-85
2021/11/04 02:37:53;;;;;;;24.57;17.07;;;;;;;8.33;89.42;99871.22;1676401;85;25862;-84
2021/11/04 02:40:22;;;;;;;27.82;16.35;;;;;;;8.33;89.41;99869.39;1603704;84;27522;-84
2021/11/04 02:42:51;;;;;;;26.82;17.23;;;;;;;8.32;89.35;99860.22;1629832;86;25878;-83
2021/11/04 02:45:25;;;;;;;23.83;16.80;;;;;;;8.30;89.45;99860.91;1632845;85;25410;-83
2021/11/04 02:47:52;;;;;;;25.92;16.57;;;;;;;8.32;89.48;99861.55;1627157;85;25966;-84
2021/11/04 02:50:20;;;;;;;22.87;16.87;;;;;;;8.32;89.48;99861.55;1675357;85;26028;-83
2021/11/04 02:52:47;;;;;;;26.73;16.80;;;;;;;8.30;89.45;99856.41;1627476;85;28204;-83
2021/11/04 02:55:15;;;;;;;22.05;16.10;;;;;;;8.30;89.47;99849.74;1651312;85;25839;-84
2021/11/04 02:57:46;;;;;;;26.82;16.52;;;;;;;8.30;89.36;99846.23;1625609;85;25913;-83
2021/11/04 03:00:16;;;;;;;26.42;16.12;;;;;;;8.29;89.42;99845.44;1674255;85;25574;-85
2021/11/04 03:02:43;;;;;;;22.25;16.37;;;;;;;8.29;89.40;99842.77;1624526;85;26172;-83
2021/11/04 03:05:11;;;;;;;20.08;14.85;;;;;;;8.30;89.41;99831.56;1628731;85;27601;-84
2021/11/04 03:07:38;;;;;;;20.43;14.38;;;;;;;8.31;89.36;99841.23;1619104;85;25861;-84
2021/11/04 03:10:07;;;;;;;20.57;14.68;;;;;;;8.29;89.19;99835.27;1671127;85;25909;-84
2021/11/04 03:12:34;;;;;;;22.80;15.40;;;;;;;8.29;89.11;99831.27;1647608;84;26591;-84
2021/11/04 03:15:02;;;;;;;22.32;17.02;;;;;;;8.26;89.04;99824.96;1619819;85;25976;-84
2021/11/04 03:17:29;;;;;;;21.93;15.20;;;;;;;8.25;89.00;99824.16;1618429;86;27454;-84
2021/11/04 03:19:57;;;;;;;27.25;17.40;;;;;;;8.25;89.18;99823.30;1669548;85;25872;-83
2021/11/04 03:22:24;;;;;;;24.12;16.27;;;;;;;8.24;89.10;99824.30;1617778;85;25886;-84
2021/11/04 03:24:52;;;;;;;19.95;15.55;;;;;;;8.24;89.22;99817.63;1635497;85;25970;-84
2021/11/04 03:27:19;;;;;;;26.17;18.02;;;;;;;8.26;89.24;99816.45;1617013;86;25391;-85
2021/11/04 03:29:47;;;;;;;22.48;16.57;;;;;;;8.24;89.02;99802.95;1668075;85;28328;-84
2021/11/04 03:32:18;;;;;;;27.13;19.60;;;;;;;8.22;89.06;99807.16;1618195;86;25649;-85
2021/11/04 03:34:46;;;;;;;27.67;17.70;;;;;;;8.23;89.15;99800.79;1640095;85;25819;-85
2021/11/04 03:37:15;;;;;;;25.20;17.90;;;;;;;8.22;89.03;99800.98;1591940;87;26017;-84
2021/11/04 03:39:44;;;;;;;23.85;16.95;;;;;;;8.20;89.07;99808.36;1687775;84;25798;-84
2021/11/04 03:42:12;;;;;;;23.12;15.72;;;;;;;8.19;89.01;99795.52;1607559;86;27515;-84
2021/11/04 03:44:41;;;;;;;22.25;15.05;;;;;;;8.21;88.92;99795.34;1626201;86;26284;-84
2021/11/04 03:47:10;;;;;;;21.73;15.80;;;;;;;8.19;88.85;99785.38;1625853;85;25803;-85
2021/11/04 03:49:38;;;;;;;21.07;14.00;;;;;;;8.16;88.72;99783.91;1674610;85;25465;-84
2021/11/04 03:52:05;;;;;;;21.00;14.47;;;;;;;8.14;88.71;99783.78;1624649;85;25346;-85
2021/11/04 03:54:33;;;;;;;20.88;15.20;;;;;;;8.14;88.65;99789.12;1620951;85;27507;-84
2021/11/04 03:57:00;;;;;;;22.40;14.33;;;;;;;8.15;88.60;99786.75;1645678;85;25888;-84
2021/11/04 03:59:28;;;;;;;20.15;15.05;;;;;;;8.14;88.50;99783.78;1675425;85;25773;-84
2021/11/04 04:01:56;;;;;;;18.92;13.80;;;;;;;8.11;88.37;99775.65;1623760;85;25925;-85
2021/11/04 04:04:23;;;;;;;20.88;13.53;;;;;;;8.12;88.24;99779.16;1647038;85;25851;-84
2021/11/04 04:06:55;;;;;;;21.02;14.78;;;;;;;8.08;87.96;99770.72;1616038;86;28519;-84
2021/11/04 04:09:24;;;;;;;19.32;13.55;;;;;;;8.04;87.95;99762.75;1659574;86;26018;-84
2021/11/04 04:11:53;;;;;;;18.40;13.18;;;;;;;8.01;87.76;99751.15;1634991;86;25375;-86
2021/11/04 04:14:21;;;;;;;17.98;12.45;;;;;;;7.97;87.77;99749.88;1615092;86;25911;-84
2021/11/04 04:16:48;;;;;;;19.82;13.72;;;;;;;7.95;87.80;99754.58;1617424;86;25950;-83
2021/11/04 04:19:17;;;;;;;20.23;13.95;;;;;;;7.90;87.83;99766.31;1662689;86;27490;-84
2021/11/04 04:21:44;;;;;;;18.48;12.73;;;;;;;7.89;87.95;99766.52;1632275;85;25445;-84
2021/11/04 04:24:11;;;;;;;17.12;13.43;;;;;;;7.89;87.96;99765.18;1655510;85;25431;-84
2021/11/04 04:26:38;;;;;;;16.87;12.13;;;;;;;7.91;87.99;99766.65;1625399;85;26077;-84
2021/11/04 04:29:05;;;;;;;19.07;12.60;;;;;;;7.90;87.96;99752.98;1667567;85;25796;-83
2021/11/04 04:31:32;;;;;;;19.00;12.60;;;;;;;7.89;87.92;99756.65;1608786;85;27569;-83
2021/11/04 04:33:59;;;;;;;17.42;12.25;;;;;;;7.89;87.93;99758.52;1628968;85;25871;-83
2021/11/04 04:36:27;;;;;;;19.20;12.63;;;;;;;7.89;88.01;99769.98;1617655;85;25821;-83
2021/11/04 04:38:54;;;;;;;18.80;12.80;;;;;;;7.88;88.05;99770.18;1656545;86;25817;-84
2021/11/04 04:41:21;;;;;;;19.27;12.93;;;;;;;7.85;88.14;99760.72;1609329;86;26180;-84
2021/11/04 04:43:48;;;;;;;18.90;12.80;;;;;;;7.88;88.24;99763.52;1609201;86;28186;-84
2021/11/04 04:46:17;;;;;;;19.60;12.28;;;;;;;7.87;88.21;99757.87;1608436;86;26038;-84
2021/11/04 04:48:44;;;;;;;18.00;12.25;;;;;;;7.86;88.16;99759.72;1653032;86;25327;-83
2021/11/04 04:51:11;;;;;;;15.45;11.28;;;;;;;7.85;88.15;99746.05;1604403;86;25897;-84
2021/11/04 04:53:38;;;;;;;19.27;11.63;;;;;;;7.85;88.17;99743.38;1628477;85;25855;-84
2021/11/04 04:56:05;;;;;;;20.90;11.97;;;;;;;7.85;88.16;99732.72;1577444;87;27556;-84
2021/11/04 04:58:32;;;;;;;19.20;12.28;;;;;;;7.85;88.17;99731.38;1649545;85;26037;-85
2021/11/04 05:00:59;;;;;;;18.00;12.15;;;;;;;7.84;88.13;99731.59;1625432;85;25456;-84
2021/11/04 05:03:27;;;;;;;17.25;12.78;;;;;;;7.83;88.18;99736.09;1585922;85;45024;-85
2021/11/04 05:05:54;;;;;;;15.58;11.03;;;;;;;7.85;88.22;99726.59;1618672;85;25934;-84
2021/11/04 05:08:21;;;;;;;17.45;11.33;;;;;;;7.86;88.14;99726.89;1651671;84;27583;-84
2021/11/04 05:10:48;;;;;;;17.15;10.82;;;;;;;7.87;88.22;99713.36;1688186;83;25965;-84
2021/11/04 05:13:16;;;;;;;20.05;12.07;;;;;;;7.88;88.04;99707.02;1615341;86;25924;-85
2021/11/04 05:15:43;;;;;;;14.55;10.68;;;;;;;7.90;88.14;99700.98;1593326;86;25919;-84
2021/11/04 05:18:10;;;;;;;14.98;10.25;;;;;;;7.91;87.91;99687.98;1658456;86;25814;-84
2021/11/04 05:20:38;;;;;;;13.80;8.85;;;;;;;7.91;87.84;99675.16;1656851;86;27487;-83
2021/11/04 05:23:06;;;;;;;14.63;10.32;;;;;;;7.90;87.75;99660.16;1597564;86;26033;-84
2021/11/04 05:25:33;;;;;;;17.30;9.40;;;;;;;7.89;87.79;99655.33;1634074;86;26505;-84
2021/11/04 05:28:00;;;;;;;15.58;9.43;;;;;;;7.90;87.64;99645.00;1661218;86;26542;-84
2021/11/04 05:30:27;;;;;;;14.33;9.60;;;;;;;7.91;87.61;99633.83;1647655;86;25791;-85
2021/11/04 05:32:54;;;;;;;14.45;10.18;;;;;;;7.91;87.40;99639.99;1590940;86;27542;-84
2021/11/04 05:35:21;;;;;;;14.80;8.53;;;;;;;7.92;87.49;99646.12;1648050;84;26788;-84
2021/11/04 05:37:48;;;;;;;16.30;10.63;;;;;;;7.94;87.33;99641.42;1685971;83;25885;-87
2021/11/04 05:40:15;;;;;;;16.30;9.65;;;;;;;7.94;87.27;99653.42;1650855;86;26143;-87
2021/11/04 05:42:42;;;;;;;15.20;10.30;;;;;;;7.95;87.23;99657.25;1616714;86;25719;-84
2021/11/04 05:45:10;;;;;;;12.73;9.20;;;;;;;7.95;87.24;99649.75;1637025;84;27407;-84
2021/11/04 05:47:37;;;;;;;21.73;9.20;;;;;;;7.95;87.25;99651.92;1653079;86;25486;-84
2021/11/04 05:50:05;;;;;;;14.93;9.33;;;;;;;7.98;87.27;99655.52;1634628;86;25848;-85
2021/11/04 05:52:32;;;;;;;12.88;9.20;;;;;;;8.00;87.15;99654.02;1624717;85;26259;-84
2021/11/04 05:55:00;;;;;;;11.03;7.65;;;;;;;8.02;87.08;99657.31;1588916;85;25966;-84
2021/11/04 05:57:27;;;;;;;12.63;8.63;;;;;;;8.02;86.91;99648.77;1669520;85;27526;-84
2021/11/04 05:59:54;;;;;;;13.53;8.95;;;;;;;8.03;87.02;99648.27;1657308;85;25890;-84
2021/11/04 06:02:22;;;;;;;15.95;10.28;;;;;;;8.05;87.02;99652.41;1638096;85;25393;-85
2021/11/04 06:04:50;;;;;;;18.57;12.18;;;;;;;8.08;86.78;99659.20;1591861;87;26230;-84
2021/11/04 06:07:17;;;;;;;17.52;11.30;;;;;;;8.09;86.72;99653.66;1662033;84;25776;-84
2021/11/04 06:09:44;;;;;;;21.70;13.98;;;;;;;8.10;86.61;99653.99;1641849;85;27682;-84
2021/11/04 06:12:11;;;;;;;26.10;14.68;;;;;;;8.12;86.56;99642.62;1596810;85;25953;-85
2021/11/04 06:14:39;;;;;;;14.38;10.20;;;;;;;8.13;86.36;99630.08;1636720;84;25413;-84
2021/11/04 06:17:06;;;;;;;23.05;13.90;;;;;;;8.14;86.14;99622.41;1643391;84;26562;-85
2021/11/04 06:19:33;;;;;;;31.05;17.10;;;;;;;8.14;86.10;99628.58;1685107;84;25854;-85
2021/11/04 06:22:01;;;;;;;31.75;16.67;;;;;;;8.15;86.01;99636.05;1667687;84;28089;-85
2021/11/04 06:24:28;;;;;;;25.60;15.10;;;;;;;8.17;86.02;99650.04;1620581;84;26128;-84
2021/11/04 06:26:55;;;;;;;15.35;9.70;;;;;;;8.21;86.01;99649.97;1671978;84;25881;-84
2021/11/04 06:29:22;;;;;;;17.85;12.55;;;;;;;8.22;85.88;99638.25;1688346;84;26539;-83
2021/11/04 06:31:49;;;;;;;17.12;9.43;;;;;;;8.25;86.00;99649.88;1667459;84;25846;-84
2021/11/04 06:34:16;;;;;;;11.68;8.30;;;;;;;8.27;85.73;99648.71;1641801;86;27465;-85
2021/11/04 06:36:43;;;;;;;13.50;9.03;;;;;;;8.28;85.84;99645.00;1616137;86;25662;-85
2021/11/04 06:39:10;;;;;;;12.82;8.58;;;;;;;8.31;85.80;99634.45;1685422;84;26200;-84
2021/11/04 06:41:37;;;;;;;20.45;11.05;;;;;;;8.33;85.68;99634.58;1639306;84;25838;-84
2021/11/04 06:44:04;;;;;;;15.45;9.60;;;;;;;8.35;85.64;99635.20;1616655;86;25984;-84
2021/11/04 06:46:32;;;;;;;17.52;9.98;;;;;;;8.38;85.61;99639.34;1656463;84;28260;-84
2021/11/04 06:49:09;;;;;;;15.60;10.23;;;;;;;8.40;85.58;99635.42;1689272;84;25924;-84
2021/11/04 06:51:41;;;;;;;13.38;8.83;;;;;;;8.43;85.51;99631.55;1658255;85;25895;-85
2021/11/04 06:54:14;;;;;;;13.90;9.40;;;;;;;8.46;85.39;99627.16;1643304;85;25830;-84
2021/11/04 06:56:46;;;;;;;13.88;9.08;;;;;;;8.48;85.29;99621.95;1650785;85;26025;-83
2021/11/04 06:59:20;;;;;;;11.38;8.30;;;;;;;8.49;85.19;99631.59;1669139;85;28185;-84
2021/11/04 07:01:59;;;;;;;10.98;7.67;;;;;;;8.51;85.18;99623.41;1661775;85;25928;-83
2021/11/04 07:04:34;;;;;;;14.85;8.90;;;;;;;8.54;84.92;99627.00;1619591;85;26652;-83
2021/11/04 07:07:10;;;;;;;11.35;7.70;;;;;;;8.57;85.04;99629.78;1641960;86;25653;-84
2021/11/04 07:09:40;;;;;;;17.82;10.50;;;;;;;8.59;85.00;99620.56;1650002;86;25841;-84
2021/11/04 07:12:09;;;;;;;;;;;;;;;8.63;84.90;99614.31;1632261;85;27202;-84
2021/11/04 07:14:40;;;;;;;16.97;11.43;;;;;;;8.65;84.91;99610.93;1621743;87;25917;-84
2021/11/04 07:17:10;;;;;;;18.07;11.28;;;;;;;8.66;84.97;99603.25;1635614;86;25395;-84
2021/11/04 07:19:37;;;;;;;18.60;11.65;;;;;;;8.71;84.97;99600.78;1659563;86;26347;-84
2021/11/04 07:22:35;;;;;;;17.50;10.10;;;;;;;8.73;84.78;99587.55;1583288;86;26572;-84
2021/11/04 07:25:10;;;;;;;18.62;10.32;;;;;;;8.75;84.63;99585.51;1660929;86;28151;-84
2021/11/04 07:27:59;;;;;;;18.55;10.25;;;;;;;8.79;84.42;99573.41;1620769;86;25882;-83
2021/11/04 07:30:30;;;;;;;16.17;9.78;;;;;;;8.82;84.38;99576.19;1643023;86;25824;-84
2021/11/04 07:33:01;;;;;;;15.00;9.80;;;;;;;8.86;84.49;99572.92;1610385;86;25921;-84
2021/11/04 07:35:39;;;;;;;14.38;10.05;;;;;;;8.91;84.44;99568.32;1637281;86;25430;-84
2021/11/04 07:38:09;;;;;;;17.73;10.90;;;;;;;8.95;84.42;99558.87;1629856;86;27572;-84
2021/11/04 07:40:37;;;;;;;14.25;9.13;;;;;;;8.98;84.47;99551.81;1659476;86;25804;-84
2021/11/04 07:43:04;;;;;;;12.13;8.03;;;;;;;9.02;84.47;99536.52;1612025;86;26003;-84
2021/11/04 07:45:33;;;;;;;13.53;8.50;;;;;;;9.08;84.32;99529.53;1612376;86;26808;-84
2021/11/04 07:48:00;;;;;;;13.65;8.40;;;;;;;9.10;84.15;99526.97;1623305;86;25954;-85
2021/11/04 07:50:29;;;;;;;15.58;9.50;;;;;;;9.13;83.98;99515.86;1646620;86;27481;-84
2021/11/04 07:52:57;;;;;;;19.00;9.03;;;;;;;9.16;83.93;99522.14;1613723;85;25801;-84
2021/11/04 07:55:24;;;;;;;11.50;7.95;;;;;;;9.20;83.93;99517.20;1634117;86;25623;-85
2021/11/04 07:57:51;;;;;;;12.78;8.58;;;;;;;9.24;83.74;99507.75;1634009;86;25929;-84
2021/11/04 08:00:22;;;;;;;15.95;8.60;;;;;;;9.26;83.51;99505.19;1653790;86;25972;-85
2021/11/04 08:02:49;;;;;;;;;;;;;;;9.27;83.36;99504.17;1616437;86;27256;-84
2021/11/04 08:05:18;;;;;;;13.75;9.00;;;;;;;9.30;82.79;99514.44;1626029;86;26502;-84
2021/11/04 08:07:46;;;;;;;13.22;8.75;;;;;;;9.29;83.10;99511.47;1633600;84;25861;-84
2021/11/04 08:10:16;;;;;;;20.25;10.05;;;;;;;9.31;83.09;99509.41;1670488;84;25844;-83
2021/11/04 08:12:44;;;;;;;17.17;9.75;;;;;;;9.35;83.27;99511.16;1630010;84;25912;-86
2021/11/04 08:15:13;;;;;;;16.35;9.58;;;;;;;9.37;83.35;99503.75;1672874;84;27636;-84
2021/11/04 08:17:40;;;;;;;14.65;9.70;;;;;;;9.40;83.48;99505.20;1687224;84;25847;-84
2021/11/04 08:20:09;;;;;;;15.23;9.95;;;;;;;9.40;83.64;99499.85;1671832;84;25851;-84
2021/11/04 08:22:37;;;;;;;15.43;9.70;;;;;;;9.43;83.86;99491.44;1627538;84;26172;-85
2021/11/04 08:25:06;;;;;;;14.35;9.33;;;;;;;9.46;84.06;99500.36;1670687;84;25928;-85
2021/11/04 08:27:33;;;;;;;17.73;10.08;;;;;;;9.48;84.05;99489.77;1690754;84;27691;-83
2021/11/04 08:30:00;;;;;;;17.77;10.82;;;;;;;9.50;84.10;99485.55;1672980;84;25966;-84
2021/11/04 08:32:28;;;;;;;18.60;10.23;;;;;;;9.50;84.05;99486.38;1650626;84;25351;-84
2021/11/04 08:34:55;;;;;;;15.30;10.80;;;;;;;9.53;83.93;99493.17;1671863;84;25852;-84
2021/11/04 08:37:22;;;;;;;15.70;11.25;;;;;;;9.55;84.15;99483.92;1692666;84;25952;-85
2021/11/04 08:39:49;;;;;;;13.62;9.18;;;;;;;9.61;84.18;99483.59;1672771;84;28128;-85
2021/11/04 08:42:16;;;;;;;15.98;10.25;;;;;;;9.63;84.10;99478.34;1670973;84;25382;-85
2021/11/04 08:44:43;;;;;;;15.83;8.85;;;;;;;9.64;83.94;99470.66;1671247;84;25892;-85
2021/11/04 08:47:11;;;;;;;19.23;9.73;;;;;;;9.68;84.02;99469.70;1684581;84;25938;-84
2021/11/04 08:49:40;;;;;;;21.90;14.40;;;;;;;9.72;84.03;99473.61;1671256;84;25869;-84
2021/11/04 08:52:08;;;;;;;13.95;9.05;;;;;;;9.74;83.85;99471.03;1647472;84;27875;-85
2021/11/04 08:54:36;;;;;;;16.48;9.28;;;;;;;9.78;83.81;99464.23;1671773;84;26355;-85
2021/11/04 08:57:03;;;;;;;15.55;9.30;;;;;;;9.81;83.85;99467.84;1664774;84;25869;-85
2021/11/04 08:59:30;;;;;;;18.57;10.85;;;;;;;9.83;83.80;99461.77;1668884;84;25477;-84
2021/11/04 09:01:57;;;;;;;18.77;10.23;;;;;;;9.88;83.84;99461.14;1651092;84;25874;-85
2021/11/04 09:04:25;;;;;;;38.53;20.92;;;;;;;9.91;83.85;99462.04;1673631;84;27560;-85
2021/11/04 09:06:53;;;;;;;57.15;29.00;;;;;;;9.95;83.79;99455.23;1688838;84;25903;-85
2021/11/04 09:09:21;;;;;;;91.45;43.17;;;;;;;9.99;83.92;99451.94;1668952;84;26678;-85
2021/11/04 09:11:49;;;;;;;80.00;41.70;;;;;;;10.05;83.83;99449.75;1628418;84;25663;-85
2021/11/04 09:14:16;;;;;;;39.23;21.87;;;;;;;10.08;83.73;99443.16;1668831;84;26273;-85
2021/11/04 09:16:43;;;;;;;26.65;17.25;;;;;;;10.13;83.67;99436.70;1664618;85;27569;-85
2021/11/04 09:19:11;;;;;;;29.00;16.02;;;;;;;10.17;83.45;99439.25;1639836;85;25881;-85
2021/11/04 09:21:38;;;;;;;38.17;22.10;;;;;;;10.20;83.57;99437.47;1618038;85;25596;-86
2021/11/04 09:24:05;;;;;;;33.78;20.20;;;;;;;10.24;83.56;99421.32;1640897;85;26175;-84
2021/11/04 09:26:37;;;;;;;24.67;13.75;;;;;;;10.27;83.47;99416.86;1669313;85;25778;-85
2021/11/04 09:29:05;;;;;;;24.65;15.00;;;;;;;10.33;83.41;99411.19;1612457;87;28051;-85
2021/11/04 09:31:33;;;;;;;21.40;11.28;;;;;;;10.37;83.44;99400.36;1601442;85;25836;-84
2021/11/04 09:34:00;;;;;;;16.80;11.55;;;;;;;10.41;83.19;99399.72;1623302;85;25936;-85
2021/11/04 09:36:29;;;;;;;17.87;10.05;;;;;;;10.46;83.23;99387.00;1670415;85;26462;-85
2021/11/04 09:39:01;;;;;;;16.37;10.68;;;;;;;10.50;83.18;99380.20;1639542;86;25920;-85
2021/11/04 09:41:29;;;;;;;20.35;11.45;;;;;;;10.55;83.12;99367.80;1599844;85;27519;-87
2021/11/04 09:43:57;;;;;;;27.50;16.80;;;;;;;10.62;83.01;99376.61;1617628;85;25940;-84
2021/11/04 09:46:25;;;;;;;42.15;23.90;;;;;;;10.70;83.19;99370.16;1638814;86;25895;-85
2021/11/04 09:48:53;;;;;;;68.02;37.38;;;;;;;10.78;83.25;99357.84;1666542;86;25932;-85
2021/11/04 09:51:21;;;;;;;21.57;14.33;;;;;;;10.88;83.26;99357.36;1669638;85;25467;-84
2021/11/04 09:53:48;;;;;;;31.40;26.62;;;;;;;10.95;83.18;99352.78;1659987;84;27523;-85
2021/11/04 09:56:16;;;;;;;34.63;25.65;;;;;;;11.03;83.03;99338.58;1623831;85;25875;-85
2021/11/04 09:58:44;;;;;;;14.20;9.95;;;;;;;11.12;82.94;99325.72;1680055;84;25753;-84
2021/11/04 10:01:32;;;;;;;17.42;8.98;;;;;;;11.21;82.88;99324.38;1687584;84;25829;-85
2021/11/04 10:04:02;;;;;;;11.68;7.33;;;;;;;11.30;82.99;99321.19;1616721;84;26011;-84
2021/11/04 10:06:34;;;;;;;11.55;6.58;;;;;;;11.39;82.53;99321.20;1635642;84;28239;-85
2021/11/04 10:09:11;;;;;;;13.50;6.95;;;;;;;11.47;81.92;99319.56;1674793;84;26031;-85
2021/11/04 10:11:42;;;;;;;10.98;7.17;;;;;;;11.55;81.85;99321.94;1610066;88;25995;-85
2021/11/04 10:14:16;;;;;;;9.25;6.20;;;;;;;11.63;81.84;99320.84;1581861;88;26125;-85
2021/11/04 10:16:43;;;;;;;10.53;6.78;;;;;;;11.69;81.93;99318.62;1566861;88;25913;-85
2021/11/04 10:19:14;;;;;;;11.97;7.72;;;;;;;11.76;81.19;99317.20;1641414;86;28223;-85
2021/11/04 10:21:48;;;;;;;16.80;7.50;;;;;;;11.81;81.06;99308.77;1630238;86;25651;-85
2021/11/04 10:24:25;;;;;;;11.30;6.78;;;;;;;11.88;81.39;99318.90;1642876;85;26186;-84
2021/11/04 10:26:57;;;;;;;11.48;6.35;;;;;;;11.94;80.89;99322.53;1603914;86;25796;-85
2021/11/04 10:29:37;;;;;;;11.53;6.97;;;;;;;11.99;80.78;99310.60;1660669;86;25896;-86
2021/11/04 10:32:05;;;;;;;13.55;7.22;;;;;;;12.02;80.68;99306.11;1657430;86;27560;-85
2021/11/04 10:34:36;;;;;;;9.38;5.58;;;;;;;12.05;79.79;99302.98;1575375;86;25711;-84
2021/11/04 10:37:22;;;;;;;7.95;6.12;;;;;;;12.09;79.75;99307.67;1605705;86;25945;-85
2021/11/04 10:39:49;;;;;;;8.48;5.40;;;;;;;12.13;80.06;99309.36;1631646;86;26224;-85
2021/11/04 10:42:16;;;;;;;9.40;5.62;;;;;;;12.15;78.24;99302.72;1660372;86;25839;-85
2021/11/04 10:44:43;;;;;;;12.00;5.78;;;;;;;12.19;79.31;99304.42;1593031;86;27502;-85
2021/11/04 10:47:16;;;;;;;8.63;5.67;;;;;;;12.22;79.30;99299.95;1609068;86;26593;-86
2021/11/04 10:49:51;;;;;;;8.43;5.33;;;;;;;12.26;79.25;99295.23;1633730;87;26055;-85
2021/11/04 10:52:24;;;;;;;7.58;5.22;;;;;;;12.28;79.14;99287.77;1610291;87;25900;-84
2021/11/04 10:54:55;;;;;;;9.20;6.15;;;;;;;12.31;78.74;99287.33;1653987;86;25398;-85
2021/11/04 10:57:41;;;;;;;12.20;5.97;;;;;;;12.34;78.34;99283.34;1644989;86;27261;-86
2021/11/04 11:00:23;;;;;;;10.05;6.53;;;;;;;12.36;78.42;99265.95;1656120;86;25940;-86
2021/11/04 11:03:05;;;;;;;10.58;6.42;;;;;;;12.41;78.34;99261.23;1660539;86;25783;-85
2021/11/04 11:05:34;;;;;;;9.63;6.10;;;;;;;12.44;78.14;99254.59;1630391;86;25859;-85
2021/11/04 11:08:05;;;;;;;11.63;6.78;;;;;;;12.47;78.12;99242.85;1628201;86;25801;-85
2021/11/04 11:10:33;;;;;;;9.20;6.50;;;;;;;12.50;77.81;99248.29;1642325;86;28174;-85
2021/11/04 11:13:02;;;;;;;14.18;8.23;;;;;;;12.49;77.74;99219.27;1654766;86;25832;-86
2021/11/04 11:15:40;;;;;;;10.82;6.53;;;;;;;12.51;77.99;99219.05;1613887;86;26489;-86
2021/11/04 11:18:09;;;;;;;16.62;11.88;;;;;;;12.52;78.06;99219.33;1617117;86;25997;-85
2021/11/04 11:20:43;;;;;;;12.73;7.50;;;;;;;12.53;78.06;99214.27;1648910;86;25959;-84
2021/11/04 11:23:25;;;;;;;10.18;6.40;;;;;;;12.54;77.64;99215.37;1655966;86;27629;-87
2021/11/04 11:25:56;;;;;;;11.70;6.15;;;;;;;12.55;77.84;99203.59;1635524;86;25796;-86
2021/11/04 11:28:31;;;;;;;11.03;7.70;;;;;;;12.58;77.81;99192.87;1620445;86;25798;-86
2021/11/04 11:31:14;;;;;;;11.63;7.00;;;;;;;12.59;77.79;99186.47;1647448;86;25492;-85
2021/11/04 11:33:48;;;;;;;11.00;6.78;;;;;;;12.59;77.85;99210.64;1660718;86;26109;-85
2021/11/04 11:36:21;;;;;;;8.95;6.10;;;;;;;12.59;77.82;99214.67;1612923;86;27479;-86